createdAt,value
2019-03-19T00:01:47.458Z,100718.38
2019-03-19T00:06:49.078Z,100726.54
2019-03-19T00:11:50.654Z,100724.98
2019-03-19T00:16:52.268Z,100727.62
2019-03-19T00:21:53.852Z,100731.60
2019-03-19T00:26:55.568Z,100730.50
2019-03-19T00:31:57.166Z,100743.67
2019-03-19T00:36:58.767Z,100751.22
2019-03-19T00:42:00.519Z,100744.07
2019-03-19T00:47:02.111Z,100759.37
2019-03-19T00:52:03.683Z,100757.16
2019-03-19T00:57:05.345Z,100759.02
2019-03-19T01:02:07.086Z,100759.22
2019-03-19T01:07:08.756Z,100756.00
2019-03-19T01:12:10.430Z,100762.87
2019-03-19T01:17:12.193Z,100773.03
2019-03-19T01:22:13.737Z,100768.70
2019-03-19T01:27:15.287Z,100764.38
2019-03-19T01:32:16.864Z,100775.95
2019-03-19T01:37:18.597Z,100778.12
2019-03-19T01:42:20.169Z,100773.42
2019-03-19T01:47:21.773Z,100773.05
2019-03-19T01:52:23.494Z,100781.28
2019-03-19T01:57:25.403Z,100775.00
2019-03-19T02:02:26.960Z,100776.69
2019-03-19T02:07:28.520Z,100779.28
2019-03-19T02:12:30.125Z,100801.38
2019-03-19T02:17:31.935Z,100799.08
2019-03-19T02:22:33.555Z,100799.75
2019-03-19T02:27:35.226Z,100799.67
2019-03-19T02:32:36.787Z,100805.64
2019-03-19T02:37:38.489Z,100802.56
2019-03-19T02:42:40.094Z,100811.95
2019-03-19T02:47:41.774Z,100818.81
2019-03-19T02:52:43.518Z,100830.31
2019-03-19T02:57:45.217Z,100833.02
2019-03-19T03:02:46.987Z,100849.78
2019-03-19T03:07:48.669Z,100838.13
2019-03-19T03:12:50.281Z,100840.90
2019-03-19T03:17:52.014Z,100842.18
2019-03-19T03:22:53.623Z,100850.91
2019-03-19T03:27:55.303Z,100855.16
2019-03-19T03:32:56.941Z,100864.92
2019-03-19T03:37:58.613Z,100876.68
2019-03-19T03:43:00.196Z,100874.17
2019-03-19T03:48:01.820Z,100885.58
2019-03-19T03:53:03.549Z,100889.55
2019-03-19T03:58:05.308Z,100891.13
2019-03-19T04:03:07.105Z,100901.06
2019-03-19T04:08:08.798Z,100911.89
2019-03-19T04:13:10.531Z,100916.23
2019-03-19T04:18:12.276Z,100912.27
2019-03-19T04:23:13.960Z,100925.25
2019-03-19T04:28:15.559Z,100930.88
2019-03-19T04:33:17.187Z,100921.45
2019-03-19T04:38:18.727Z,100931.39
2019-03-19T04:43:20.406Z,100924.72
2019-03-19T04:48:21.962Z,100935.01
2019-03-19T04:53:24.395Z,100940.27
2019-03-19T04:58:26.039Z,100936.75
2019-03-19T05:03:27.633Z,100938.53
2019-03-19T05:08:29.179Z,100946.56
2019-03-19T05:13:30.762Z,100951.30
2019-03-19T05:18:32.392Z,100962.23
2019-03-19T05:23:33.921Z,100981.16
2019-03-19T05:28:35.525Z,100986.45
2019-03-19T05:33:37.074Z,100987.20
2019-03-19T05:38:38.688Z,100985.25
2019-03-19T05:43:40.344Z,100976.23
2019-03-19T05:48:41.990Z,100988.02
2019-03-19T05:53:43.643Z,100997.31
2019-03-19T05:58:45.183Z,101006.57
2019-03-19T06:03:46.773Z,101011.70
2019-03-19T06:08:48.360Z,101011.62
2019-03-19T06:13:49.901Z,101023.31
2019-03-19T06:18:51.611Z,101021.64
2019-03-19T06:23:53.190Z,101039.20
2019-03-19T06:28:54.760Z,101037.42
2019-03-19T06:33:56.341Z,101048.77
2019-03-19T06:38:57.890Z,101053.69
2019-03-19T06:43:59.464Z,101055.20
2019-03-19T06:49:01.040Z,101055.95
2019-03-19T06:54:02.698Z,101063.54
2019-03-19T06:59:04.284Z,101063.56
2019-03-19T07:04:06.091Z,101065.98
2019-03-19T07:09:08.026Z,101068.73
2019-03-19T07:14:09.705Z,101094.45
2019-03-19T07:19:11.391Z,101084.89
2019-03-19T07:24:12.955Z,101089.27
2019-03-19T07:29:14.546Z,101091.88
2019-03-19T07:34:16.104Z,101113.70
2019-03-19T07:39:17.683Z,101107.28
2019-03-19T07:44:19.236Z,101109.05
2019-03-19T07:49:20.797Z,101114.73
2019-03-19T07:54:22.349Z,101113.33
2019-03-19T07:59:23.890Z,101125.97
2019-03-19T08:04:25.428Z,101140.38
2019-03-19T08:09:27.087Z,101131.62
2019-03-19T08:14:28.688Z,101131.17
2019-03-19T08:19:30.262Z,101137.66
2019-03-19T08:24:31.813Z,101152.33
2019-03-19T08:29:34.689Z,101160.14
2019-03-19T08:34:36.479Z,101155.86
2019-03-19T08:39:37.991Z,101163.38
2019-03-19T08:44:39.607Z,101158.34
2019-03-19T08:49:41.219Z,101168.35
2019-03-19T08:54:42.808Z,101160.72
2019-03-19T08:59:44.361Z,101161.42
2019-03-19T09:04:46.182Z,101162.98
2019-03-19T09:09:47.726Z,101161.12
2019-03-19T09:14:49.286Z,101172.27
2019-03-19T09:19:50.841Z,101186.38
2019-03-19T09:24:52.472Z,101185.69
2019-03-19T09:29:54.124Z,101189.16
2019-03-19T09:34:55.697Z,101191.23
2019-03-19T09:39:57.246Z,101196.08
2019-03-19T09:44:58.904Z,101232.20
2019-03-19T09:50:00.423Z,101248.36
2019-03-19T09:55:02.130Z,101245.24
2019-03-19T10:00:06.423Z,101241.16
2019-03-19T10:05:08.103Z,101246.50
2019-03-19T10:10:11.278Z,101249.86
2019-03-19T10:15:13.131Z,101246.33
2019-03-19T10:20:14.767Z,101253.87
2019-03-19T10:25:16.411Z,101257.97
2019-03-19T10:30:18.050Z,101260.95
2019-03-19T10:35:19.750Z,101253.55
2019-03-19T10:40:21.517Z,101253.92
2019-03-19T10:45:23.269Z,101253.03
2019-03-19T10:50:25.235Z,101245.73
2019-03-19T10:55:26.755Z,101243.84
2019-03-19T11:00:28.409Z,101253.38
2019-03-19T11:05:30.086Z,101261.20
2019-03-19T11:10:31.623Z,101246.24
2019-03-19T11:15:33.301Z,101241.72
2019-03-19T11:20:35.197Z,101244.61
2019-03-19T11:25:36.748Z,101232.85
2019-03-19T11:30:38.390Z,101222.54
2019-03-19T11:35:40.028Z,101223.55
2019-03-19T11:40:41.777Z,101229.64
2019-03-19T11:45:43.409Z,101238.80
2019-03-19T11:50:45.014Z,101242.56
2019-03-19T11:55:46.710Z,101243.66
2019-03-19T12:00:51.968Z,101246.84
2019-03-19T12:05:55.073Z,101243.69
2019-03-19T12:10:56.649Z,101245.98
2019-03-19T12:15:58.244Z,101260.33
2019-03-19T12:21:01.010Z,101272.45
2019-03-19T12:26:03.065Z,101268.48
2019-03-19T12:31:04.740Z,101263.94
2019-03-19T12:36:06.429Z,101274.44
2019-03-19T12:41:07.971Z,101279.59
2019-03-19T12:46:09.953Z,101274.69
2019-03-19T12:51:11.525Z,101268.96
2019-03-19T12:56:13.135Z,101270.66
2019-03-19T13:01:15.547Z,101273.58
2019-03-19T13:06:17.355Z,101282.84
2019-03-19T13:11:18.940Z,101293.57
2019-03-19T13:16:20.496Z,101291.57
2019-03-19T13:21:22.052Z,101285.59
2019-03-19T13:26:23.746Z,101285.98
2019-03-19T13:31:25.302Z,101282.06
2019-03-19T13:36:26.856Z,101278.95
2019-03-19T13:41:28.397Z,101278.13
2019-03-19T13:46:30.122Z,101271.16
2019-03-19T13:51:31.715Z,101268.82
2019-03-19T13:56:33.299Z,101266.90
2019-03-19T14:01:34.979Z,101269.13
2019-03-19T14:06:36.542Z,101276.63
2019-03-19T14:11:38.110Z,101281.13
2019-03-19T14:16:39.699Z,101285.53
2019-03-19T14:21:41.537Z,101291.29
2019-03-19T14:26:43.228Z,101288.17
2019-03-19T14:31:45.009Z,101288.94
2019-03-19T14:36:46.948Z,101302.70
2019-03-19T14:41:48.871Z,101320.30
2019-03-19T14:46:50.479Z,101303.14
2019-03-19T14:51:52.211Z,101301.59
2019-03-19T14:56:53.796Z,101293.20
2019-03-19T15:01:55.523Z,101288.27
2019-03-19T15:06:57.213Z,101291.17
2019-03-19T15:11:58.890Z,101293.28
2019-03-19T15:17:04.790Z,101297.03
2019-03-19T15:22:04.368Z,101299.64
2019-03-19T15:27:06.204Z,101314.75
2019-03-19T15:32:07.877Z,101312.27
2019-03-19T15:37:14.369Z,101319.09
2019-03-19T15:42:16.230Z,101312.84
2019-03-19T15:47:17.927Z,101317.05
2019-03-19T15:52:22.143Z,101312.69
2019-03-19T15:57:23.848Z,101325.45
2019-03-19T16:02:25.595Z,101327.54
2019-03-19T16:07:27.286Z,101323.53
2019-03-19T16:12:28.799Z,101331.99
2019-03-19T16:17:30.593Z,101334.48
2019-03-19T16:22:32.289Z,101342.03
2019-03-19T16:27:34.365Z,101357.89
2019-03-19T16:32:35.976Z,101362.39
2019-03-19T16:37:37.760Z,101365.97
2019-03-19T16:42:39.327Z,101369.14
2019-03-19T16:47:40.993Z,101365.86
2019-03-19T16:52:42.691Z,101378.02
2019-03-19T16:57:44.366Z,101379.64
2019-03-19T17:02:48.030Z,101372.28
2019-03-19T17:07:49.976Z,101373.84
2019-03-19T17:12:51.641Z,101389.34
2019-03-19T17:17:53.433Z,101396.07
2019-03-19T17:22:55.006Z,101403.66
2019-03-19T17:27:59.027Z,101413.75
2019-03-19T17:33:00.728Z,101413.61
2019-03-19T17:38:02.300Z,101418.54
2019-03-19T17:43:04.134Z,101421.33
2019-03-19T17:48:15.792Z,101426.47
2019-03-19T17:53:09.246Z,101432.34
2019-03-19T17:58:10.895Z,101436.67
2019-03-19T18:03:12.566Z,101453.16
2019-03-19T18:08:14.100Z,101458.20
2019-03-19T18:13:15.676Z,101455.21
2019-03-19T18:18:17.238Z,101467.52
2019-03-19T18:23:18.788Z,101470.63
2019-03-19T18:28:20.419Z,101477.86
2019-03-19T18:33:22.020Z,101473.69
2019-03-19T18:38:23.616Z,101477.15
2019-03-19T18:43:25.194Z,101480.41
2019-03-19T18:48:26.788Z,101488.72
2019-03-19T18:53:28.413Z,101496.66
2019-03-19T18:58:30.014Z,101498.42
2019-03-19T19:03:31.581Z,101505.70
2019-03-19T19:08:33.131Z,101512.78
2019-03-19T19:13:34.911Z,101512.41
2019-03-19T19:18:36.529Z,101515.77
2019-03-19T19:23:38.076Z,101525.27
2019-03-19T19:28:39.690Z,101518.00
2019-03-19T19:33:41.259Z,101529.56
2019-03-19T19:38:42.829Z,101526.98
2019-03-19T19:43:44.405Z,101537.05
2019-03-19T19:48:46.030Z,101548.50
2019-03-19T19:53:47.895Z,101547.30
2019-03-19T19:58:49.523Z,101557.75
2019-03-19T20:03:51.933Z,101560.36
2019-03-19T20:08:53.654Z,101566.42
2019-03-19T20:13:55.180Z,101569.70
2019-03-19T20:18:56.735Z,101575.94
2019-03-19T20:23:58.411Z,101574.45
2019-03-19T20:28:59.964Z,101581.80
2019-03-19T20:34:01.523Z,101580.23
2019-03-19T20:39:06.224Z,101585.07
2019-03-19T20:44:07.878Z,101590.95
2019-03-19T20:49:09.405Z,101592.33
2019-03-19T20:54:10.949Z,101601.20
2019-03-19T20:59:12.564Z,101604.83
2019-03-19T21:04:14.212Z,101602.40
2019-03-19T21:09:15.783Z,101604.83
2019-03-19T21:14:22.431Z,101610.88
2019-03-19T21:19:24.197Z,101619.29
2019-03-19T21:24:26.003Z,101614.89
2019-03-19T21:29:27.835Z,101627.28
2019-03-19T21:34:29.620Z,101625.89
2019-03-19T21:39:31.491Z,101634.47
2019-03-19T21:44:33.190Z,101636.15
2019-03-19T21:49:34.775Z,101641.00
2019-03-19T21:54:36.538Z,101643.78
2019-03-19T21:59:38.114Z,101640.80
2019-03-19T22:04:39.991Z,101653.52
2019-03-19T22:09:41.738Z,101651.99
2019-03-19T22:14:43.295Z,101651.55
2019-03-19T22:19:45.203Z,101658.52
2019-03-19T22:24:47.058Z,101657.33
2019-03-19T22:29:48.700Z,101658.36
2019-03-19T22:34:50.506Z,101658.72
2019-03-19T22:39:52.278Z,101666.55
2019-03-19T22:44:54.254Z,101670.73
2019-03-19T22:49:56.188Z,101671.19
2019-03-19T22:54:58.011Z,101676.59
2019-03-19T22:59:59.752Z,101676.79
2019-03-19T23:05:01.860Z,101677.55
2019-03-19T23:10:04.476Z,101682.39
2019-03-19T23:15:08.358Z,101689.64
2019-03-19T23:20:10.252Z,101695.03
2019-03-19T23:25:12.264Z,101698.30
2019-03-19T23:30:14.006Z,101703.72
2019-03-19T23:35:15.717Z,101703.98
2019-03-19T23:40:17.413Z,101702.23
2019-03-19T23:45:19.215Z,101711.20
2019-03-19T23:50:20.841Z,101718.00
2019-03-19T23:55:22.647Z,101714.46
